createdAt,value
2022-10-05T00:00:28.205Z,84.47
2022-10-05T00:10:32.811Z,87.43
2022-10-05T00:20:36.069Z,86.20
2022-10-05T00:30:41.175Z,86.13
2022-10-05T00:41:00.807Z,85.90
2022-10-05T00:51:23.858Z,87.27
2022-10-05T01:01:33.242Z,87.77
2022-10-05T01:11:48.393Z,88.53
2022-10-05T01:21:58.705Z,83.30
2022-10-05T01:32:11.647Z,86.60
2022-10-05T01:42:26.548Z,83.83
2022-10-05T01:52:44.973Z,83.33
2022-10-05T02:02:53.224Z,84.53
2022-10-05T02:13:03.472Z,83.13
2022-10-05T02:23:14.910Z,80.63
2022-10-05T02:33:25.857Z,81.33
2022-10-05T02:43:44.325Z,79.73
2022-10-05T02:54:03.330Z,83.77
2022-10-05T03:04:21.415Z,84.27
2022-10-05T03:14:34.062Z,83.90
2022-10-05T03:25:00.424Z,79.80
2022-10-05T03:35:13.031Z,78.23
2022-10-05T03:45:26.440Z,80.70
2022-10-05T03:55:40.166Z,81.63
2022-10-05T04:05:50.537Z,80.73
2022-10-05T04:16:03.781Z,82.03
2022-10-05T04:26:12.783Z,80.53
2022-10-05T04:36:25.873Z,79.83
2022-10-05T04:46:43.471Z,78.40
2022-10-05T04:56:54.797Z,81.33
2022-10-05T05:07:16.026Z,83.30
2022-10-05T05:17:47.889Z,85.20
2022-10-05T05:27:56.471Z,85.07
2022-10-05T05:38:17.893Z,84.83
2022-10-05T05:48:33.328Z,85.30
2022-10-05T05:58:47.679Z,88.10
2022-10-05T06:08:56.172Z,85.87
2022-10-05T06:19:16.408Z,113.63
2022-10-05T06:29:25.200Z,95.07
2022-10-05T06:40:01.068Z,93.60
2022-10-05T06:50:20.425Z,89.03
2022-10-05T07:00:53.270Z,88.60
2022-10-05T07:11:14.414Z,90.07
2022-10-05T07:21:31.241Z,97.20
2022-10-05T07:31:45.469Z,98.17
2022-10-05T07:42:03.400Z,100.40
2022-10-05T07:52:12.483Z,104.87
2022-10-05T08:02:28.443Z,106.10
2022-10-05T08:12:37.244Z,105.73
2022-10-05T08:22:47.159Z,109.37
2022-10-05T08:32:57.185Z,113.00
2022-10-05T08:43:12.363Z,117.43
2022-10-05T08:53:38.472Z,132.85
2022-10-05T09:04:13.471Z,115.50
2022-10-05T09:14:45.157Z,111.20
2022-10-05T09:25:00.485Z,110.97
2022-10-05T09:35:20.423Z,112.40
2022-10-05T09:46:12.472Z,115.77
2022-10-05T09:57:06.005Z,108.80
2022-10-05T10:07:50.270Z,112.83
2022-10-05T10:18:27.503Z,110.63
2022-10-05T10:28:54.361Z,112.70
2022-10-05T10:39:03.956Z,119.17
2022-10-05T10:49:27.104Z,120.50
2022-10-05T11:00:29.796Z,119.47
2022-10-05T11:11:23.629Z,134.15
2022-10-05T11:21:34.341Z,126.93
2022-10-05T11:32:14.157Z,122.95
2022-10-05T11:43:03.521Z,131.70
2022-10-05T11:53:21.038Z,120.05
2022-10-05T12:03:44.631Z,122.68
2022-10-05T12:13:57.251Z,120.65
2022-10-05T12:24:08.684Z,122.63
2022-10-05T12:34:28.994Z,116.03
2022-10-05T12:45:06.518Z,119.70
2022-10-05T12:55:19.257Z,118.85
2022-10-05T13:05:32.242Z,121.07
2022-10-05T13:15:46.593Z,117.07
2022-10-05T13:25:58.460Z,117.90
2022-10-05T13:36:12.380Z,119.72
2022-10-05T13:46:29.380Z,120.22
2022-10-05T13:56:38.777Z,111.73
2022-10-05T14:06:42.146Z,112.00
2022-10-05T14:16:53.591Z,107.70
2022-10-05T14:26:59.362Z,113.00
2022-10-05T14:37:19.199Z,105.03
2022-10-05T14:47:26.383Z,107.83
2022-10-05T14:57:42.087Z,104.20
2022-10-05T15:07:49.754Z,101.53
2022-10-05T15:18:00.820Z,103.13
2022-10-05T15:28:13.668Z,100.90
2022-10-05T15:38:25.634Z,101.70
2022-10-05T15:48:42.413Z,100.40
2022-10-05T15:58:55.056Z,108.70
2022-10-05T16:09:15.002Z,99.67
2022-10-05T16:19:28.990Z,113.37
2022-10-05T16:29:44.067Z,108.03
2022-10-05T16:39:57.772Z,94.00
2022-10-05T16:50:13.233Z,94.83
2022-10-05T17:00:22.096Z,94.33
2022-10-05T17:10:49.919Z,98.37
2022-10-05T17:21:05.517Z,94.53
2022-10-05T17:31:17.442Z,97.27
2022-10-05T17:41:25.313Z,94.97
2022-10-05T17:52:19.008Z,94.07
2022-10-05T18:02:39.429Z,98.30
2022-10-05T18:13:19.721Z,92.90
2022-10-05T18:23:35.455Z,118.23
2022-10-05T18:33:57.800Z,102.20
2022-10-05T18:44:18.818Z,106.93
2022-10-05T18:54:48.593Z,108.57
2022-10-05T19:05:29.274Z,109.53
2022-10-05T19:15:49.117Z,113.50
2022-10-05T19:25:58.808Z,111.00
2022-10-05T19:36:22.619Z,115.07
2022-10-05T19:46:43.169Z,109.93
2022-10-05T19:56:53.434Z,93.20
2022-10-05T20:06:57.044Z,94.67
2022-10-05T20:17:44.551Z,95.67
2022-10-05T20:27:50.163Z,99.40
2022-10-05T20:38:00.294Z,106.93
2022-10-05T20:48:03.968Z,105.83
2022-10-05T20:58:11.265Z,106.93
2022-10-05T21:08:15.241Z,96.90
2022-10-05T21:18:20.281Z,92.43
2022-10-05T21:28:23.687Z,91.07
2022-10-05T21:38:28.990Z,101.13
2022-10-05T21:48:35.275Z,94.40
2022-10-05T21:58:42.541Z,94.20
2022-10-05T22:08:46.091Z,97.40
2022-10-05T22:18:53.630Z,105.37
2022-10-05T22:28:57.113Z,89.43
2022-10-05T22:39:02.017Z,90.17
2022-10-05T22:49:05.243Z,88.70
2022-10-05T22:59:09.868Z,88.63
2022-10-05T23:09:13.095Z,90.27
2022-10-05T23:19:17.987Z,87.67
2022-10-05T23:29:21.301Z,85.27
2022-10-05T23:39:25.959Z,89.30
2022-10-05T23:49:29.202Z,87.87
2022-10-05T23:59:33.805Z,83.47
